createdAt,value
2023-03-01T00:01:22.756Z,103811.00
2023-03-01T00:03:51.133Z,103806.63
2023-03-01T00:06:19.860Z,103796.03
2023-03-01T00:08:48.192Z,103793.50
2023-03-01T00:11:19.127Z,103788.25
2023-03-01T00:13:51.005Z,103792.66
2023-03-01T00:16:21.490Z,103786.38
2023-03-01T00:18:49.675Z,103785.41
2023-03-01T00:21:17.821Z,103776.59
2023-03-01T00:23:46.063Z,103784.25
2023-03-01T00:26:16.019Z,103772.81
2023-03-01T00:28:45.053Z,103780.66
2023-03-01T00:31:17.059Z,103786.66
2023-03-01T00:33:45.199Z,103769.34
2023-03-01T00:36:15.161Z,103777.22
2023-03-01T00:38:45.811Z,103782.34
2023-03-01T00:41:16.342Z,103776.16
2023-03-01T00:43:45.157Z,103771.69
2023-03-01T00:46:17.572Z,103765.59
2023-03-01T00:48:46.087Z,103764.06
2023-03-01T00:51:16.406Z,103769.31
2023-03-01T00:53:44.760Z,103771.84
2023-03-01T00:56:14.719Z,103768.28
2023-03-01T00:58:43.506Z,103768.28
2023-03-01T01:01:18.361Z,103763.03
2023-03-01T01:03:50.948Z,103762.28
2023-03-01T01:06:20.683Z,103761.44
2023-03-01T01:08:49.665Z,103766.72
2023-03-01T01:11:18.211Z,103762.31
2023-03-01T01:13:47.693Z,103764.06
2023-03-01T01:16:16.626Z,103761.47
2023-03-01T01:18:45.355Z,103757.03
2023-03-01T01:21:17.522Z,103763.97
2023-03-01T01:23:46.611Z,103765.75
2023-03-01T01:26:18.991Z,103755.34
2023-03-01T01:28:47.677Z,103751.06
2023-03-01T01:31:16.885Z,103759.06
2023-03-01T01:33:45.535Z,103762.53
2023-03-01T01:36:15.146Z,103767.03
2023-03-01T01:38:44.011Z,103764.50
2023-03-01T01:41:13.546Z,103766.09
2023-03-01T01:43:43.676Z,103767.88
2023-03-01T01:46:21.662Z,103760.09
2023-03-01T01:48:55.671Z,103759.16
2023-03-01T01:51:28.257Z,103751.19
2023-03-01T01:54:01.402Z,103745.09
2023-03-01T01:56:32.014Z,103744.34
2023-03-01T01:59:00.971Z,103736.38
2023-03-01T02:01:29.510Z,103742.47
2023-03-01T02:03:58.138Z,103739.84
2023-03-01T02:06:32.813Z,103723.88
2023-03-01T02:09:05.555Z,103723.13
2023-03-01T02:11:38.724Z,103716.19
2023-03-01T02:14:07.575Z,103708.16
2023-03-01T02:16:36.314Z,103703.75
2023-03-01T02:19:07.165Z,103702.97
2023-03-01T02:21:49.477Z,103700.34
2023-03-01T02:24:28.028Z,103688.94
2023-03-01T02:26:58.944Z,103692.47
2023-03-01T02:29:29.237Z,103682.75
2023-03-01T02:32:00.633Z,103675.81
2023-03-01T02:34:30.222Z,103670.69
2023-03-01T02:37:02.218Z,103671.72
2023-03-01T02:39:35.293Z,103671.63
2023-03-01T02:42:06.645Z,103669.72
2023-03-01T02:44:36.153Z,103667.00
2023-03-01T02:47:07.198Z,103663.69
2023-03-01T02:49:37.355Z,103660.19
2023-03-01T02:52:25.159Z,103664.78
2023-03-01T02:54:58.507Z,103659.44
2023-03-01T02:57:29.592Z,103659.34
2023-03-01T03:00:01.984Z,103654.06
2023-03-01T03:02:41.427Z,103647.97
2023-03-01T03:05:12.930Z,103650.63
2023-03-01T03:07:41.649Z,103641.78
2023-03-01T03:10:13.538Z,103640.94
2023-03-01T03:12:42.680Z,103635.69
2023-03-01T03:15:13.890Z,103630.44
2023-03-01T03:17:45.258Z,103642.72
2023-03-01T03:20:20.134Z,103640.94
2023-03-01T03:22:49.272Z,103633.06
2023-03-01T03:25:17.858Z,103633.06
2023-03-01T03:27:47.879Z,103633.06
2023-03-01T03:30:19.674Z,103634.75
2023-03-01T03:32:53.476Z,103627.03
2023-03-01T03:35:23.338Z,103633.06
2023-03-01T03:38:07.397Z,103626.09
2023-03-01T03:40:38.067Z,103622.84
2023-03-01T03:43:07.540Z,103627.09
2023-03-01T03:45:37.512Z,103621.16
2023-03-01T03:48:08.978Z,103620.41
2023-03-01T03:50:37.245Z,103623.78
2023-03-01T03:53:08.800Z,103625.66
2023-03-01T03:55:40.349Z,103616.97
2023-03-01T03:58:10.840Z,103627.47
2023-03-01T04:00:42.328Z,103623.06
2023-03-01T04:03:10.603Z,103622.31
2023-03-01T04:05:39.256Z,103615.28
2023-03-01T04:08:09.160Z,103617.91
2023-03-01T04:10:39.837Z,103621.38
2023-03-01T04:13:09.257Z,103612.66
2023-03-01T04:15:37.768Z,103619.56
2023-03-01T04:18:07.751Z,103613.44
2023-03-01T04:20:37.667Z,103609.91
2023-03-01T04:23:14.450Z,103610.81
2023-03-01T04:25:44.391Z,103613.44
2023-03-01T04:28:12.751Z,103613.28
2023-03-01T04:30:42.522Z,103614.22
2023-03-01T04:33:12.825Z,103605.50
2023-03-01T04:35:41.601Z,103609.06
2023-03-01T04:38:10.725Z,103608.13
2023-03-01T04:40:39.475Z,103603.88
2023-03-01T04:43:07.685Z,103596.84
2023-03-01T04:45:36.890Z,103603.09
2023-03-01T04:48:05.851Z,103606.50
2023-03-01T04:50:35.923Z,103597.69
2023-03-01T04:53:04.600Z,103598.63
2023-03-01T04:55:32.903Z,103600.31
2023-03-01T04:58:01.260Z,103599.56
2023-03-01T05:00:29.388Z,103600.41
2023-03-01T05:03:00.493Z,103598.63
2023-03-01T05:05:30.546Z,103597.69
2023-03-01T05:08:02.084Z,103593.38
2023-03-01T05:10:31.286Z,103599.56
2023-03-01T05:13:00.185Z,103597.88
2023-03-01T05:15:29.426Z,103600.47
2023-03-01T05:18:01.329Z,103592.63
2023-03-01T05:20:30.969Z,103591.81
2023-03-01T05:23:06.442Z,103590.94
2023-03-01T05:25:41.232Z,103598.72
2023-03-01T05:28:13.919Z,103589.06
2023-03-01T05:30:42.706Z,103582.97
2023-03-01T05:33:14.817Z,103583.81
2023-03-01T05:35:44.076Z,103576.88
2023-03-01T05:38:15.291Z,103575.84
2023-03-01T05:40:44.643Z,103571.44
2023-03-01T05:43:13.452Z,103574.94
2023-03-01T05:45:42.885Z,103574.06
2023-03-01T05:48:12.302Z,103578.72
2023-03-01T05:50:42.687Z,103580.56
2023-03-01T05:53:15.877Z,103584.13
2023-03-01T05:55:45.395Z,103584.41
2023-03-01T05:58:16.271Z,103601.25
2023-03-01T06:00:45.301Z,103602.56
2023-03-01T06:03:15.800Z,103609.09
2023-03-01T06:05:44.281Z,103610.19
2023-03-01T06:08:14.729Z,103609.41
2023-03-01T06:10:43.118Z,103605.88
2023-03-01T06:13:11.319Z,103609.19
2023-03-01T06:15:39.591Z,103607.25
2023-03-01T06:18:07.845Z,103603.78
2023-03-01T06:20:36.689Z,103603.78
2023-03-01T06:23:05.301Z,103600.22
2023-03-01T06:25:37.251Z,103602.72
2023-03-01T06:28:05.594Z,103599.25
2023-03-01T06:30:33.878Z,103594.00
2023-03-01T06:33:02.913Z,103601.00
2023-03-01T06:35:32.321Z,103600.00
2023-03-01T06:38:02.144Z,103604.41
2023-03-01T06:40:32.193Z,103600.94
2023-03-01T06:43:01.987Z,103607.09
2023-03-01T06:45:30.078Z,103606.16
2023-03-01T06:48:05.083Z,103605.41
2023-03-01T06:50:33.511Z,103596.75
2023-03-01T06:53:02.165Z,103597.81
2023-03-01T06:55:30.338Z,103605.06
2023-03-01T06:57:58.683Z,103594.75
2023-03-01T07:00:29.334Z,103600.13
2023-03-01T07:03:00.216Z,103597.59
2023-03-01T07:05:28.681Z,103601.16
2023-03-01T07:07:57.469Z,103593.28
2023-03-01T07:10:25.760Z,103603.69
2023-03-01T07:12:57.696Z,103601.69
2023-03-01T07:15:27.866Z,103604.22
2023-03-01T07:17:56.442Z,103592.75
2023-03-01T07:20:26.671Z,103595.59
2023-03-01T07:22:55.311Z,103611.34
2023-03-01T07:25:23.586Z,103610.63
2023-03-01T07:27:53.077Z,103604.66
2023-03-01T07:30:21.667Z,103609.84
2023-03-01T07:32:51.373Z,103610.63
2023-03-01T07:35:20.450Z,103610.47
2023-03-01T07:37:48.764Z,103602.63
2023-03-01T07:40:17.098Z,103607.47
2023-03-01T07:42:45.149Z,103607.56
2023-03-01T07:45:14.533Z,103608.19
2023-03-01T07:47:42.742Z,103602.09
2023-03-01T07:50:14.562Z,103604.56
2023-03-01T07:52:42.677Z,103616.84
2023-03-01T07:55:11.209Z,103609.94
2023-03-01T07:57:39.388Z,103607.25
2023-03-01T08:00:09.656Z,103602.00
2023-03-01T08:02:37.749Z,103605.31
2023-03-01T08:05:06.324Z,103601.72
2023-03-01T08:07:35.981Z,103603.41
2023-03-01T08:10:04.263Z,103607.81
2023-03-01T08:12:32.454Z,103601.63
2023-03-01T08:15:00.629Z,103611.19
2023-03-01T08:17:28.884Z,103605.09
2023-03-01T08:19:56.972Z,103610.25
2023-03-01T08:22:25.241Z,103606.97
2023-03-01T08:24:56.789Z,103611.38
2023-03-01T08:27:25.623Z,103613.75
2023-03-01T08:29:53.992Z,103612.75
2023-03-01T08:32:22.370Z,103621.31
2023-03-01T08:34:50.575Z,103617.91
2023-03-01T08:37:18.866Z,103618.06
2023-03-01T08:39:47.052Z,103618.06
2023-03-01T08:42:16.662Z,103621.53
2023-03-01T08:44:46.048Z,103615.50
2023-03-01T08:47:15.263Z,103622.31
2023-03-01T08:49:43.433Z,103623.00
2023-03-01T08:52:11.654Z,103621.69
2023-03-01T08:54:39.978Z,103626.00
2023-03-01T08:57:08.170Z,103626.69
2023-03-01T08:59:38.475Z,103626.56
2023-03-01T09:02:06.771Z,103634.25
2023-03-01T09:04:35.660Z,103628.03
2023-03-01T09:07:03.839Z,103634.03
2023-03-01T09:09:32.403Z,103622.41
2023-03-01T09:12:01.144Z,103627.88
2023-03-01T09:14:29.778Z,103624.56
2023-03-01T09:16:59.498Z,103628.72
2023-03-01T09:19:27.852Z,103620.91
2023-03-01T09:21:57.005Z,103628.56
2023-03-01T09:24:26.762Z,103627.19
2023-03-01T09:26:58.831Z,103634.72
2023-03-01T09:29:30.589Z,103630.28
2023-03-01T09:32:00.468Z,103622.94
2023-03-01T09:34:28.818Z,103643.78
2023-03-01T09:36:57.001Z,103630.06
2023-03-01T09:39:25.088Z,103639.53
2023-03-01T09:42:03.277Z,103622.78
2023-03-01T09:44:40.270Z,103630.25
2023-03-01T09:47:15.401Z,103644.91
2023-03-01T09:49:49.767Z,103640.03
2023-03-01T09:52:29.321Z,103636.09
2023-03-01T09:55:00.710Z,103643.63
2023-03-01T09:57:36.342Z,103637.84
2023-03-01T10:00:18.394Z,103644.22
2023-03-01T10:02:52.043Z,103632.84
2023-03-01T10:05:33.100Z,103625.66
2023-03-01T10:08:17.145Z,103624.56
2023-03-01T10:10:48.246Z,103617.19
2023-03-01T10:13:20.063Z,103622.94
2023-03-01T10:15:56.145Z,103621.78
2023-03-01T10:18:29.077Z,103625.16
2023-03-01T10:21:00.944Z,103616.44
2023-03-01T10:23:32.730Z,103624.06
2023-03-01T10:26:23.240Z,103630.88
2023-03-01T10:29:03.366Z,103611.91
2023-03-01T10:31:41.460Z,103613.97
2023-03-01T10:34:29.206Z,103615.44
2023-03-01T10:37:00.130Z,103607.19
2023-03-01T10:39:28.927Z,103609.09
2023-03-01T10:42:00.666Z,103605.44
2023-03-01T10:44:52.885Z,103598.19
2023-03-01T10:47:23.952Z,103594.13
2023-03-01T10:49:59.464Z,103589.53
2023-03-01T10:52:31.924Z,103583.78
2023-03-01T10:55:03.300Z,103583.56
2023-03-01T10:57:37.626Z,103598.13
2023-03-01T11:00:23.644Z,103592.72
2023-03-01T11:03:03.564Z,103597.53
2023-03-01T11:05:34.756Z,103587.41
2023-03-01T11:08:05.382Z,103595.50
2023-03-01T11:10:35.740Z,103593.38
2023-03-01T11:13:15.970Z,103593.13
2023-03-01T11:15:45.214Z,103586.19
2023-03-01T11:18:33.982Z,103587.47
2023-03-01T11:21:12.029Z,103591.34
2023-03-01T11:23:43.129Z,103595.16
2023-03-01T11:26:13.047Z,103585.19
2023-03-01T11:28:44.945Z,103589.34
2023-03-01T11:31:14.153Z,103579.09
2023-03-01T11:33:49.406Z,103583.22
2023-03-01T11:36:29.161Z,103576.38
2023-03-01T11:38:58.144Z,103568.13
2023-03-01T11:41:28.735Z,103563.69
2023-03-01T11:44:01.851Z,103561.25
2023-03-01T11:46:53.617Z,103554.59
2023-03-01T11:49:44.438Z,103558.78
2023-03-01T11:52:24.680Z,103556.81
2023-03-01T11:55:17.454Z,103552.13
2023-03-01T11:57:58.302Z,103553.66
2023-03-01T12:00:55.191Z,103546.63
2023-03-01T12:03:33.786Z,103544.28
2023-03-01T12:06:26.405Z,103547.88
2023-03-01T12:09:05.135Z,103543.91
2023-03-01T12:11:44.950Z,103540.41
2023-03-01T12:14:37.355Z,103541.75
2023-03-01T12:17:22.980Z,103533.19
2023-03-01T12:20:15.380Z,103531.22
2023-03-01T12:22:57.149Z,103533.34
2023-03-01T12:25:33.390Z,103523.19
2023-03-01T12:28:41.065Z,103505.41
2023-03-01T12:31:48.411Z,103510.00
2023-03-01T12:34:36.087Z,103499.47
2023-03-01T12:37:24.153Z,103500.31
2023-03-01T12:40:05.840Z,103490.31
2023-03-01T12:42:48.516Z,103493.81
2023-03-01T12:45:37.131Z,103480.63
2023-03-01T12:48:18.411Z,103472.16
2023-03-01T12:50:51.366Z,103461.72
2023-03-01T12:53:26.278Z,103467.19
2023-03-01T12:55:57.331Z,103466.56
2023-03-01T12:58:50.168Z,103456.25
2023-03-01T13:01:28.322Z,103460.28
2023-03-01T13:04:12.374Z,103459.59
2023-03-01T13:06:46.341Z,103448.13
2023-03-01T13:09:25.495Z,103442.00
2023-03-01T13:11:53.855Z,103444.44
2023-03-01T13:14:55.885Z,103439.28
2023-03-01T13:17:36.809Z,103431.84
2023-03-01T13:20:14.021Z,103439.03
2023-03-01T13:22:54.380Z,103428.16
2023-03-01T13:25:27.571Z,103429.41
2023-03-01T13:28:32.406Z,103423.00
2023-03-01T13:31:02.897Z,103421.88
2023-03-01T13:33:48.344Z,103412.94
2023-03-01T13:36:50.520Z,103411.66
2023-03-01T13:39:36.710Z,103409.28
2023-03-01T13:42:05.120Z,103401.94
2023-03-01T13:44:39.966Z,103408.78
2023-03-01T13:47:18.871Z,103400.34
2023-03-01T13:49:51.741Z,103413.50
2023-03-01T13:52:38.044Z,103415.13
2023-03-01T13:55:16.205Z,103424.13
2023-03-01T13:57:47.841Z,103416.03
2023-03-01T14:00:31.856Z,103409.19
2023-03-01T14:03:07.971Z,103403.75
2023-03-01T14:05:37.214Z,103402.72
2023-03-01T14:08:05.670Z,103390.88
2023-03-01T14:10:43.118Z,103395.75
2023-03-01T14:13:27.467Z,103398.56
2023-03-01T14:16:11.321Z,103390.59
2023-03-01T14:18:50.354Z,103391.44
2023-03-01T14:21:18.862Z,103389.16
2023-03-01T14:23:48.231Z,103383.84
2023-03-01T14:26:23.173Z,103380.91
2023-03-01T14:28:52.968Z,103379.19
2023-03-01T14:31:47.168Z,103377.44
2023-03-01T14:34:23.837Z,103365.88
2023-03-01T14:36:51.818Z,103367.81
2023-03-01T14:39:22.526Z,103374.50
2023-03-01T14:41:50.904Z,103370.66
2023-03-01T14:44:25.658Z,103381.81
2023-03-01T14:46:58.370Z,103369.84
2023-03-01T14:49:31.969Z,103368.69
2023-03-01T14:52:04.328Z,103366.34
2023-03-01T14:54:44.374Z,103364.25
2023-03-01T14:57:17.021Z,103364.09
2023-03-01T14:59:46.129Z,103345.84
2023-03-01T15:02:18.530Z,103343.31
2023-03-01T15:04:51.023Z,103341.81
2023-03-01T15:07:20.119Z,103340.31
2023-03-01T15:09:48.696Z,103339.56
2023-03-01T15:12:40.581Z,103339.94
2023-03-01T15:15:36.157Z,103334.41
2023-03-01T15:18:07.857Z,103326.84
2023-03-01T15:20:37.683Z,103325.16
2023-03-01T15:23:06.312Z,103324.31
2023-03-01T15:25:35.677Z,103325.06
2023-03-01T15:28:04.868Z,103322.38
2023-03-01T15:30:38.868Z,103309.28
2023-03-01T15:33:21.945Z,103312.81
2023-03-01T15:35:54.978Z,103305.75
2023-03-01T15:38:33.007Z,103307.03
2023-03-01T15:41:02.693Z,103302.22
2023-03-01T15:43:43.449Z,103296.41
2023-03-01T15:46:26.238Z,103294.03
2023-03-01T15:48:57.664Z,103286.41
2023-03-01T15:51:31.916Z,103288.19
2023-03-01T15:54:03.685Z,103281.63
2023-03-01T15:56:31.939Z,103273.75
2023-03-01T15:59:02.413Z,103270.00
2023-03-01T16:01:33.138Z,103262.69
2023-03-01T16:04:02.549Z,103255.50
2023-03-01T16:06:32.830Z,103250.03
2023-03-01T16:09:01.170Z,103244.72
2023-03-01T16:11:29.433Z,103241.31
2023-03-01T16:13:57.687Z,103232.69
2023-03-01T16:16:26.018Z,103231.75
2023-03-01T16:18:55.655Z,103229.28
2023-03-01T16:21:27.025Z,103226.59
2023-03-01T16:23:56.475Z,103223.69
2023-03-01T16:26:24.657Z,103221.84
2023-03-01T16:28:56.428Z,103217.31
2023-03-01T16:31:27.567Z,103221.56
2023-03-01T16:33:56.164Z,103221.28
2023-03-01T16:36:29.156Z,103220.44
2023-03-01T16:39:01.567Z,103213.97
2023-03-01T16:41:30.674Z,103220.22
2023-03-01T16:43:59.375Z,103223.72
2023-03-01T16:46:29.871Z,103227.28
2023-03-01T16:48:58.485Z,103214.63
2023-03-01T16:51:26.743Z,103215.53
2023-03-01T16:53:55.400Z,103205.03
2023-03-01T16:56:24.963Z,103207.84
2023-03-01T16:58:53.097Z,103201.00
2023-03-01T17:01:25.543Z,103195.72
2023-03-01T17:03:54.463Z,103196.94
2023-03-01T17:06:25.855Z,103200.66
2023-03-01T17:08:53.831Z,103201.78
2023-03-01T17:11:22.706Z,103197.66
2023-03-01T17:13:52.420Z,103199.44
2023-03-01T17:16:21.831Z,103191.09
2023-03-01T17:18:50.890Z,103185.38
2023-03-01T17:21:19.392Z,103190.63
2023-03-01T17:23:50.414Z,103188.28
2023-03-01T17:26:18.840Z,103182.16
2023-03-01T17:28:52.506Z,103184.78
2023-03-01T17:31:23.272Z,103180.47
2023-03-01T17:33:52.397Z,103180.66
2023-03-01T17:36:20.807Z,103184.19
2023-03-01T17:38:49.447Z,103179.91
2023-03-01T17:41:18.978Z,103184.19
2023-03-01T17:43:47.706Z,103178.94
2023-03-01T17:46:16.294Z,103178.03
2023-03-01T17:48:45.861Z,103189.56
2023-03-01T17:51:14.182Z,103182.41
2023-03-01T17:53:42.917Z,103172.97
2023-03-01T17:56:11.697Z,103171.19
2023-03-01T17:58:40.585Z,103173.91
2023-03-01T18:01:10.751Z,103172.84
2023-03-01T18:03:38.954Z,103174.06
2023-03-01T18:06:15.195Z,103173.13
2023-03-01T18:08:45.285Z,103181.00
2023-03-01T18:11:14.499Z,103177.47
2023-03-01T18:13:42.771Z,103177.53
2023-03-01T18:16:13.660Z,103185.63
2023-03-01T18:18:42.859Z,103177.81
2023-03-01T18:21:11.122Z,103175.13
2023-03-01T18:23:40.996Z,103185.63
2023-03-01T18:26:12.206Z,103174.44
2023-03-01T18:28:40.921Z,103178.66
2023-03-01T18:31:12.198Z,103187.97
2023-03-01T18:33:41.483Z,103184.19
2023-03-01T18:36:19.540Z,103180.66
2023-03-01T18:38:49.363Z,103174.53
2023-03-01T18:41:18.123Z,103178.94
2023-03-01T18:43:46.400Z,103174.53
2023-03-01T18:46:14.642Z,103178.31
2023-03-01T18:48:42.757Z,103172.03
2023-03-01T18:51:12.726Z,103173.69
2023-03-01T18:53:41.087Z,103169.41
2023-03-01T18:56:11.830Z,103164.03
2023-03-01T18:58:40.445Z,103158.72
2023-03-01T19:01:15.069Z,103161.34
2023-03-01T19:03:43.258Z,103163.78
2023-03-01T19:06:11.416Z,103158.44
2023-03-01T19:08:40.879Z,103162.09
2023-03-01T19:11:10.810Z,103154.03
2023-03-01T19:13:40.957Z,103148.00
2023-03-01T19:16:11.161Z,103155.06
2023-03-01T19:18:41.373Z,103152.34
2023-03-01T19:21:12.015Z,103153.09
2023-03-01T19:23:40.456Z,103143.38
2023-03-01T19:26:12.431Z,103142.13
2023-03-01T19:28:41.330Z,103154.72
2023-03-01T19:31:13.046Z,103150.28
2023-03-01T19:33:42.053Z,103149.75
2023-03-01T19:36:12.529Z,103141.75
2023-03-01T19:38:42.143Z,103148.06
2023-03-01T19:41:15.709Z,103140.19
2023-03-01T19:43:44.916Z,103143.72
2023-03-01T19:46:13.648Z,103134.34
2023-03-01T19:48:44.601Z,103133.31
2023-03-01T19:51:13.251Z,103131.53
2023-03-01T19:53:42.083Z,103126.28
2023-03-01T19:56:12.042Z,103128.25
2023-03-01T19:58:41.076Z,103129.97
2023-03-01T20:01:16.854Z,103126.47
2023-03-01T20:03:45.285Z,103130.78
2023-03-01T20:06:15.379Z,103128.16
2023-03-01T20:08:44.805Z,103119.25
2023-03-01T20:11:16.244Z,103125.44
2023-03-01T20:13:44.598Z,103126.38
2023-03-01T20:16:14.015Z,103120.19
2023-03-01T20:18:42.239Z,103113.25
2023-03-01T20:21:22.851Z,103114.09
2023-03-01T20:23:51.769Z,103117.56
2023-03-01T20:26:22.730Z,103117.75
2023-03-01T20:28:52.929Z,103116.72
2023-03-01T20:31:23.074Z,103117.56
2023-03-01T20:33:51.245Z,103127.22
2023-03-01T20:36:19.530Z,103118.50
2023-03-01T20:38:47.724Z,103114.84
2023-03-01T20:41:18.604Z,103123.38
2023-03-01T20:43:54.441Z,103121.50
2023-03-01T20:46:24.162Z,103103.03
2023-03-01T20:48:52.854Z,103114.47
2023-03-01T20:51:21.907Z,103103.97
2023-03-01T20:53:50.652Z,103105.66
2023-03-01T20:56:20.361Z,103099.47
2023-03-01T20:58:49.962Z,103116.81
2023-03-01T21:01:21.194Z,103092.41
2023-03-01T21:03:49.429Z,103095.81
2023-03-01T21:06:17.896Z,103093.47
2023-03-01T21:08:46.130Z,103096.84
2023-03-01T21:11:16.151Z,103083.97
2023-03-01T21:13:44.867Z,103089.97
2023-03-01T21:16:15.388Z,103093.75
2023-03-01T21:18:43.714Z,103086.63
2023-03-01T21:21:14.050Z,103087.44
2023-03-01T21:23:43.184Z,103088.56
2023-03-01T21:26:13.718Z,103073.66
2023-03-01T21:28:43.812Z,103083.25
2023-03-01T21:31:13.948Z,103074.72
2023-03-01T21:33:46.524Z,103056.44
2023-03-01T21:36:15.656Z,103067.94
2023-03-01T21:38:46.396Z,103069.84
2023-03-01T21:41:16.683Z,103071.31
2023-03-01T21:43:46.393Z,103081.09
2023-03-01T21:46:16.650Z,103079.47
2023-03-01T21:48:47.898Z,103070.84
2023-03-01T21:51:18.216Z,103073.38
2023-03-01T21:53:46.521Z,103077.91
2023-03-01T21:56:18.144Z,103076.22
2023-03-01T21:58:46.301Z,103070.19
2023-03-01T22:01:16.595Z,103065.06
2023-03-01T22:03:47.244Z,103071.25
2023-03-01T22:06:19.596Z,103070.41
2023-03-01T22:08:48.970Z,103070.59
2023-03-01T22:11:18.439Z,103066.84
2023-03-01T22:13:47.696Z,103062.44
2023-03-01T22:16:16.081Z,103064.28
2023-03-01T22:18:44.376Z,103053.88
2023-03-01T22:21:14.470Z,103059.91
2023-03-01T22:23:43.223Z,103054.66
2023-03-01T22:26:23.497Z,103053.88
2023-03-01T22:28:51.886Z,103056.63
2023-03-01T22:31:20.218Z,103058.19
2023-03-01T22:33:48.448Z,103052.09
2023-03-01T22:36:18.341Z,103046.84
2023-03-01T22:38:46.644Z,103055.00
2023-03-01T22:41:15.254Z,103054.81
2023-03-01T22:43:43.642Z,103051.38
2023-03-01T22:46:13.485Z,103057.34
2023-03-01T22:48:41.894Z,103059.25
2023-03-01T22:51:15.787Z,103050.69
2023-03-01T22:53:45.606Z,103036.63
2023-03-01T22:56:16.030Z,103048.06
2023-03-01T22:58:44.587Z,103053.50
2023-03-01T23:01:14.757Z,103044.72
2023-03-01T23:03:43.043Z,103053.31
2023-03-01T23:06:11.724Z,103050.81
2023-03-01T23:08:40.159Z,103045.91
2023-03-01T23:11:17.418Z,103050.13
2023-03-01T23:13:45.694Z,103053.72
2023-03-01T23:16:14.594Z,103041.53
2023-03-01T23:18:42.982Z,103040.75
2023-03-01T23:21:13.447Z,103036.72
2023-03-01T23:23:42.004Z,103034.28
2023-03-01T23:26:11.878Z,103034.94
2023-03-01T23:28:41.171Z,103030.81
2023-03-01T23:31:13.855Z,103027.25
2023-03-01T23:33:44.576Z,103047.50
2023-03-01T23:36:19.420Z,103038.78
2023-03-01T23:38:48.092Z,103037.84
2023-03-01T23:41:19.088Z,103035.31
2023-03-01T23:43:47.590Z,103037.94
2023-03-01T23:46:16.677Z,103033.66
2023-03-01T23:48:45.850Z,103023.88
2023-03-01T23:51:16.074Z,103031.94
2023-03-01T23:53:54.937Z,103031.19
2023-03-01T23:56:27.055Z,103030.44
2023-03-01T23:58:56.029Z,103026.78
